sensor_id;sensor_type;location;lat;lon;timestamp;P1;durP1;ratioP1;P2;durP2;ratioP2
18623;SDS011;9441;51.420;7.036;2023-12-07T00:00:56;126.63;;;33.40;;
18623;SDS011;9441;51.420;7.036;2023-12-07T00:01:57;107.07;;;32.07;;
18623;SDS011;9441;51.420;7.036;2023-12-07T00:02:59;138.57;;;33.67;;
18623;SDS011;9441;51.420;7.036;2023-12-07T00:04:01;124.60;;;32.97;;
18623;SDS011;9441;51.420;7.036;2023-12-07T00:05:03;129.67;;;34.30;;
18623;SDS011;9441;51.420;7.036;2023-12-07T00:06:05;139.63;;;34.33;;
18623;SDS011;9441;51.420;7.036;2023-12-07T00:07:07;139.50;;;34.67;;
18623;SDS011;9441;51.420;7.036;2023-12-07T00:08:09;117.33;;;34.03;;
18623;SDS011;9441;51.420;7.036;2023-12-07T00:09:11;158.77;;;34.60;;
18623;SDS011;9441;51.420;7.036;2023-12-07T00:10:13;141.53;;;35.47;;
18623;SDS011;9441;51.420;7.036;2023-12-07T00:11:16;147.47;;;36.63;;
18623;SDS011;9441;51.420;7.036;2023-12-07T00:12:18;134.73;;;35.20;;
18623;SDS011;9441;51.420;7.036;2023-12-07T00:13:21;186.23;;;36.97;;
18623;SDS011;9441;51.420;7.036;2023-12-07T00:14:25;144.63;;;35.97;;
18623;SDS011;9441;51.420;7.036;2023-12-07T00:15:28;162.03;;;37.60;;
18623;SDS011;9441;51.420;7.036;2023-12-07T00:16:29;153.30;;;38.43;;
18623;SDS011;9441;51.420;7.036;2023-12-07T00:17:31;122.40;;;36.57;;
18623;SDS011;9441;51.420;7.036;2023-12-07T00:18:34;124.93;;;35.73;;
18623;SDS011;9441;51.420;7.036;2023-12-07T00:19:35;119.20;;;37.63;;
18623;SDS011;9441;51.420;7.036;2023-12-07T00:20:36;117.03;;;37.23;;
18623;SDS011;9441;51.420;7.036;2023-12-07T00:21:38;138.30;;;37.97;;
18623;SDS011;9441;51.420;7.036;2023-12-07T00:22:40;142.33;;;39.17;;
18623;SDS011;9441;51.420;7.036;2023-12-07T00:23:42;162.07;;;38.93;;
18623;SDS011;9441;51.420;7.036;2023-12-07T00:24:44;131.63;;;36.73;;
18623;SDS011;9441;51.420;7.036;2023-12-07T00:25:45;152.73;;;37.67;;
18623;SDS011;9441;51.420;7.036;2023-12-07T00:26:47;141.07;;;38.50;;
18623;SDS011;9441;51.420;7.036;2023-12-07T00:27:51;152.77;;;38.10;;
18623;SDS011;9441;51.420;7.036;2023-12-07T00:28:52;133.37;;;38.87;;
18623;SDS011;9441;51.420;7.036;2023-12-07T00:29:54;135.50;;;39.40;;
18623;SDS011;9441;51.420;7.036;2023-12-07T00:30:56;115.60;;;38.00;;
18623;SDS011;9441;51.420;7.036;2023-12-07T00:31:58;123.60;;;37.93;;
18623;SDS011;9441;51.420;7.036;2023-12-07T00:32:59;174.33;;;39.27;;
18623;SDS011;9441;51.420;7.036;2023-12-07T00:34:01;143.63;;;40.90;;
18623;SDS011;9441;51.420;7.036;2023-12-07T00:35:03;150.40;;;38.73;;
18623;SDS011;9441;51.420;7.036;2023-12-07T00:36:06;152.13;;;39.67;;
18623;SDS011;9441;51.420;7.036;2023-12-07T00:37:07;171.70;;;39.77;;
18623;SDS011;9441;51.420;7.036;2023-12-07T00:38:09;120.73;;;38.50;;
18623;SDS011;9441;51.420;7.036;2023-12-07T00:39:12;127.00;;;37.90;;
18623;SDS011;9441;51.420;7.036;2023-12-07T00:40:13;110.13;;;38.07;;
18623;SDS011;9441;51.420;7.036;2023-12-07T00:41:15;139.93;;;37.40;;
18623;SDS011;9441;51.420;7.036;2023-12-07T00:42:17;168.60;;;38.60;;
18623;SDS011;9441;51.420;7.036;2023-12-07T00:43:21;139.73;;;38.60;;
18623;SDS011;9441;51.420;7.036;2023-12-07T00:44:22;137.73;;;37.97;;
18623;SDS011;9441;51.420;7.036;2023-12-07T00:45:25;142.77;;;38.70;;
18623;SDS011;9441;51.420;7.036;2023-12-07T00:46:26;135.60;;;36.97;;
18623;SDS011;9441;51.420;7.036;2023-12-07T00:47:28;166.97;;;37.57;;
18623;SDS011;9441;51.420;7.036;2023-12-07T00:48:29;146.17;;;36.23;;
18623;SDS011;9441;51.420;7.036;2023-12-07T00:49:32;138.73;;;37.30;;
18623;SDS011;9441;51.420;7.036;2023-12-07T00:50:33;148.10;;;38.63;;
18623;SDS011;9441;51.420;7.036;2023-12-07T00:51:35;133.70;;;36.90;;
18623;SDS011;9441;51.420;7.036;2023-12-07T00:52:37;139.90;;;37.60;;
18623;SDS011;9441;51.420;7.036;2023-12-07T00:53:39;125.03;;;37.90;;
18623;SDS011;9441;51.420;7.036;2023-12-07T00:54:40;123.07;;;36.27;;
18623;SDS011;9441;51.420;7.036;2023-12-07T00:55:43;133.67;;;36.80;;
18623;SDS011;9441;51.420;7.036;2023-12-07T00:56:44;170.67;;;38.37;;
18623;SDS011;9441;51.420;7.036;2023-12-07T00:57:46;119.93;;;35.87;;
18623;SDS011;9441;51.420;7.036;2023-12-07T00:58:49;110.07;;;37.27;;
18623;SDS011;9441;51.420;7.036;2023-12-07T00:59:51;147.53;;;35.87;;
18623;SDS011;9441;51.420;7.036;2023-12-07T01:00:52;136.40;;;37.77;;
18623;SDS011;9441;51.420;7.036;2023-12-07T01:01:55;163.87;;;37.67;;
18623;SDS011;9441;51.420;7.036;2023-12-07T01:02:56;145.17;;;38.20;;
18623;SDS011;9441;51.420;7.036;2023-12-07T01:03:58;129.47;;;38.53;;
18623;SDS011;9441;51.420;7.036;2023-12-07T01:05:00;179.57;;;38.73;;
18623;SDS011;9441;51.420;7.036;2023-12-07T01:06:02;132.37;;;39.03;;
18623;SDS011;9441;51.420;7.036;2023-12-07T01:07:03;121.10;;;36.73;;
18623;SDS011;9441;51.420;7.036;2023-12-07T01:08:06;158.53;;;37.40;;
18623;SDS011;9441;51.420;7.036;2023-12-07T01:09:07;143.60;;;37.40;;
18623;SDS011;9441;51.420;7.036;2023-12-07T01:10:13;147.73;;;39.63;;
18623;SDS011;9441;51.420;7.036;2023-12-07T01:11:14;150.83;;;40.70;;
18623;SDS011;9441;51.420;7.036;2023-12-07T01:12:16;137.23;;;39.57;;
18623;SDS011;9441;51.420;7.036;2023-12-07T01:13:18;145.30;;;38.93;;
18623;SDS011;9441;51.420;7.036;2023-12-07T01:14:21;194.67;;;38.17;;
18623;SDS011;9441;51.420;7.036;2023-12-07T01:15:23;168.70;;;37.70;;
18623;SDS011;9441;51.420;7.036;2023-12-07T01:16:25;138.43;;;38.77;;
18623;SDS011;9441;51.420;7.036;2023-12-07T01:17:26;186.07;;;39.13;;
18623;SDS011;9441;51.420;7.036;2023-12-07T01:18:29;199.87;;;39.80;;
18623;SDS011;9441;51.420;7.036;2023-12-07T01:19:30;173.07;;;39.23;;
18623;SDS011;9441;51.420;7.036;2023-12-07T01:20:32;181.00;;;39.10;;
18623;SDS011;9441;51.420;7.036;2023-12-07T01:21:33;156.70;;;38.20;;
18623;SDS011;9441;51.420;7.036;2023-12-07T01:22:36;201.87;;;40.17;;
18623;SDS011;9441;51.420;7.036;2023-12-07T01:23:38;154.00;;;39.13;;
18623;SDS011;9441;51.420;7.036;2023-12-07T01:24:40;159.83;;;39.13;;
18623;SDS011;9441;51.420;7.036;2023-12-07T01:25:41;139.17;;;39.30;;
18623;SDS011;9441;51.420;7.036;2023-12-07T01:26:43;207.13;;;39.27;;
18623;SDS011;9441;51.420;7.036;2023-12-07T01:27:45;167.70;;;38.33;;
18623;SDS011;9441;51.420;7.036;2023-12-07T01:28:46;146.13;;;39.30;;
18623;SDS011;9441;51.420;7.036;2023-12-07T01:29:50;148.30;;;39.60;;
18623;SDS011;9441;51.420;7.036;2023-12-07T01:30:51;125.90;;;39.03;;
18623;SDS011;9441;51.420;7.036;2023-12-07T01:31:53;173.83;;;41.53;;
18623;SDS011;9441;51.420;7.036;2023-12-07T01:32:55;128.40;;;38.47;;
18623;SDS011;9441;51.420;7.036;2023-12-07T01:33:57;120.87;;;39.03;;
18623;SDS011;9441;51.420;7.036;2023-12-07T01:34:58;152.67;;;39.67;;
18623;SDS011;9441;51.420;7.036;2023-12-07T01:36:00;157.00;;;41.47;;
18623;SDS011;9441;51.420;7.036;2023-12-07T01:37:02;146.40;;;40.70;;
18623;SDS011;9441;51.420;7.036;2023-12-07T01:38:04;147.27;;;42.10;;
18623;SDS011;9441;51.420;7.036;2023-12-07T01:39:06;148.53;;;41.60;;
18623;SDS011;9441;51.420;7.036;2023-12-07T01:40:08;149.77;;;40.13;;
18623;SDS011;9441;51.420;7.036;2023-12-07T01:41:10;151.97;;;40.60;;
18623;SDS011;9441;51.420;7.036;2023-12-07T01:42:12;135.90;;;40.60;;
18623;SDS011;9441;51.420;7.036;2023-12-07T01:43:14;182.97;;;40.17;;
18623;SDS011;9441;51.420;7.036;2023-12-07T01:44:15;169.93;;;42.83;;
18623;SDS011;9441;51.420;7.036;2023-12-07T01:45:19;184.03;;;40.20;;
18623;SDS011;9441;51.420;7.036;2023-12-07T01:46:21;139.80;;;39.23;;
18623;SDS011;9441;51.420;7.036;2023-12-07T01:47:23;143.33;;;41.37;;
18623;SDS011;9441;51.420;7.036;2023-12-07T01:48:25;178.80;;;40.83;;
18623;SDS011;9441;51.420;7.036;2023-12-07T01:49:28;162.73;;;40.47;;
18623;SDS011;9441;51.420;7.036;2023-12-07T01:50:29;178.73;;;41.73;;
18623;SDS011;9441;51.420;7.036;2023-12-07T01:51:32;139.77;;;41.17;;
18623;SDS011;9441;51.420;7.036;2023-12-07T01:52:34;167.27;;;42.20;;
18623;SDS011;9441;51.420;7.036;2023-12-07T01:53:37;179.00;;;40.33;;
18623;SDS011;9441;51.420;7.036;2023-12-07T01:54:40;139.73;;;37.57;;
18623;SDS011;9441;51.420;7.036;2023-12-07T01:55:42;131.87;;;38.70;;
18623;SDS011;9441;51.420;7.036;2023-12-07T01:56:43;185.40;;;39.43;;
18623;SDS011;9441;51.420;7.036;2023-12-07T01:57:46;186.00;;;39.97;;
18623;SDS011;9441;51.420;7.036;2023-12-07T01:58:49;139.60;;;40.67;;
18623;SDS011;9441;51.420;7.036;2023-12-07T01:59:51;135.73;;;39.97;;
18623;SDS011;9441;51.420;7.036;2023-12-07T02:00:54;127.37;;;39.07;;
18623;SDS011;9441;51.420;7.036;2023-12-07T02:01:57;261.87;;;40.50;;
18623;SDS011;9441;51.420;7.036;2023-12-07T02:02:58;182.47;;;40.70;;
18623;SDS011;9441;51.420;7.036;2023-12-07T02:04:00;279.57;;;40.70;;
18623;SDS011;9441;51.420;7.036;2023-12-07T02:05:02;211.27;;;39.47;;
18623;SDS011;9441;51.420;7.036;2023-12-07T02:06:05;188.03;;;37.53;;
18623;SDS011;9441;51.420;7.036;2023-12-07T02:07:06;130.80;;;38.70;;
18623;SDS011;9441;51.420;7.036;2023-12-07T02:08:09;226.20;;;39.30;;
18623;SDS011;9441;51.420;7.036;2023-12-07T02:09:10;181.90;;;41.53;;
18623;SDS011;9441;51.420;7.036;2023-12-07T02:10:13;120.70;;;39.00;;
18623;SDS011;9441;51.420;7.036;2023-12-07T02:11:14;127.93;;;36.33;;
18623;SDS011;9441;51.420;7.036;2023-12-07T02:12:16;244.83;;;38.73;;
18623;SDS011;9441;51.420;7.036;2023-12-07T02:13:19;305.23;;;39.87;;
18623;SDS011;9441;51.420;7.036;2023-12-07T02:14:21;174.30;;;40.03;;
18623;SDS011;9441;51.420;7.036;2023-12-07T02:15:23;123.67;;;38.03;;
18623;SDS011;9441;51.420;7.036;2023-12-07T02:16:28;122.83;;;37.90;;
18623;SDS011;9441;51.420;7.036;2023-12-07T02:17:33;120.70;;;35.67;;
18623;SDS011;9441;51.420;7.036;2023-12-07T02:18:38;230.67;;;38.87;;
18623;SDS011;9441;51.420;7.036;2023-12-07T02:19:46;199.37;;;38.30;;
18623;SDS011;9441;51.420;7.036;2023-12-07T02:20:49;199.40;;;37.97;;
18623;SDS011;9441;51.420;7.036;2023-12-07T02:21:55;135.63;;;36.73;;
18623;SDS011;9441;51.420;7.036;2023-12-07T02:23:00;139.40;;;35.93;;
18623;SDS011;9441;51.420;7.036;2023-12-07T02:24:01;127.47;;;36.93;;
18623;SDS011;9441;51.420;7.036;2023-12-07T02:25:04;122.07;;;35.73;;
18623;SDS011;9441;51.420;7.036;2023-12-07T02:26:08;215.13;;;37.93;;
18623;SDS011;9441;51.420;7.036;2023-12-07T02:27:12;136.60;;;36.60;;
18623;SDS011;9441;51.420;7.036;2023-12-07T02:28:14;172.30;;;38.27;;
18623;SDS011;9441;51.420;7.036;2023-12-07T02:29:17;136.23;;;38.67;;
18623;SDS011;9441;51.420;7.036;2023-12-07T02:30:19;135.67;;;39.53;;
18623;SDS011;9441;51.420;7.036;2023-12-07T02:31:20;124.03;;;39.47;;
18623;SDS011;9441;51.420;7.036;2023-12-07T02:32:23;239.83;;;42.37;;
18623;SDS011;9441;51.420;7.036;2023-12-07T02:33:24;381.77;;;39.77;;
18623;SDS011;9441;51.420;7.036;2023-12-07T02:34:27;364.57;;;41.73;;
18623;SDS011;9441;51.420;7.036;2023-12-07T02:35:28;143.57;;;37.97;;
18623;SDS011;9441;51.420;7.036;2023-12-07T02:36:31;227.60;;;38.60;;
18623;SDS011;9441;51.420;7.036;2023-12-07T02:37:35;124.30;;;38.20;;
18623;SDS011;9441;51.420;7.036;2023-12-07T02:38:38;129.47;;;37.13;;
18623;SDS011;9441;51.420;7.036;2023-12-07T02:39:41;170.73;;;37.57;;
18623;SDS011;9441;51.420;7.036;2023-12-07T02:40:42;219.67;;;38.07;;
18623;SDS011;9441;51.420;7.036;2023-12-07T02:41:46;128.20;;;36.03;;
18623;SDS011;9441;51.420;7.036;2023-12-07T02:42:50;331.20;;;38.73;;
18623;SDS011;9441;51.420;7.036;2023-12-07T02:43:52;218.17;;;38.43;;
18623;SDS011;9441;51.420;7.036;2023-12-07T02:44:53;377.00;;;39.50;;
18623;SDS011;9441;51.420;7.036;2023-12-07T02:45:56;354.67;;;36.77;;
18623;SDS011;9441;51.420;7.036;2023-12-07T02:46:58;228.53;;;36.70;;
18623;SDS011;9441;51.420;7.036;2023-12-07T02:48:01;502.93;;;38.93;;
18623;SDS011;9441;51.420;7.036;2023-12-07T02:49:02;220.17;;;37.23;;
18623;SDS011;9441;51.420;7.036;2023-12-07T02:50:05;204.17;;;37.63;;
18623;SDS011;9441;51.420;7.036;2023-12-07T02:51:07;332.53;;;36.40;;
18623;SDS011;9441;51.420;7.036;2023-12-07T02:52:09;224.27;;;36.53;;
18623;SDS011;9441;51.420;7.036;2023-12-07T02:53:11;370.50;;;37.93;;
18623;SDS011;9441;51.420;7.036;2023-12-07T02:54:13;431.37;;;40.03;;
18623;SDS011;9441;51.420;7.036;2023-12-07T02:55:14;123.83;;;34.97;;
18623;SDS011;9441;51.420;7.036;2023-12-07T02:56:17;214.77;;;37.40;;
18623;SDS011;9441;51.420;7.036;2023-12-07T02:57:18;147.57;;;35.33;;
18623;SDS011;9441;51.420;7.036;2023-12-07T02:58:22;199.97;;;35.27;;
18623;SDS011;9441;51.420;7.036;2023-12-07T02:59:24;254.50;;;36.53;;
18623;SDS011;9441;51.420;7.036;2023-12-07T03:00:26;158.57;;;36.87;;
18623;SDS011;9441;51.420;7.036;2023-12-07T03:01:27;324.07;;;35.17;;
18623;SDS011;9441;51.420;7.036;2023-12-07T03:02:29;185.37;;;35.93;;
18623;SDS011;9441;51.420;7.036;2023-12-07T03:03:31;261.73;;;36.80;;
18623;SDS011;9441;51.420;7.036;2023-12-07T03:04:33;336.00;;;37.40;;
18623;SDS011;9441;51.420;7.036;2023-12-07T03:05:34;404.17;;;36.77;;
18623;SDS011;9441;51.420;7.036;2023-12-07T03:06:37;533.50;;;36.70;;
18623;SDS011;9441;51.420;7.036;2023-12-07T03:07:38;311.93;;;33.43;;
18623;SDS011;9441;51.420;7.036;2023-12-07T03:08:40;375.37;;;34.30;;
18623;SDS011;9441;51.420;7.036;2023-12-07T03:09:42;494.40;;;37.13;;
18623;SDS011;9441;51.420;7.036;2023-12-07T03:10:44;394.60;;;33.90;;
18623;SDS011;9441;51.420;7.036;2023-12-07T03:11:45;539.13;;;38.67;;
18623;SDS011;9441;51.420;7.036;2023-12-07T03:12:48;251.90;;;32.97;;
18623;SDS011;9441;51.420;7.036;2023-12-07T03:13:50;354.23;;;35.70;;
18623;SDS011;9441;51.420;7.036;2023-12-07T03:14:52;272.33;;;34.00;;
18623;SDS011;9441;51.420;7.036;2023-12-07T03:15:54;273.63;;;34.67;;
18623;SDS011;9441;51.420;7.036;2023-12-07T03:16:55;265.67;;;35.47;;
18623;SDS011;9441;51.420;7.036;2023-12-07T03:17:57;147.63;;;33.70;;
18623;SDS011;9441;51.420;7.036;2023-12-07T03:19:00;141.87;;;30.30;;
18623;SDS011;9441;51.420;7.036;2023-12-07T03:20:02;129.37;;;30.73;;
18623;SDS011;9441;51.420;7.036;2023-12-07T03:21:05;146.40;;;30.03;;
18623;SDS011;9441;51.420;7.036;2023-12-07T03:22:07;155.43;;;30.03;;
18623;SDS011;9441;51.420;7.036;2023-12-07T03:23:10;153.83;;;33.10;;
18623;SDS011;9441;51.420;7.036;2023-12-07T03:24:11;315.63;;;34.27;;
18623;SDS011;9441;51.420;7.036;2023-12-07T03:25:13;139.07;;;29.37;;
18623;SDS011;9441;51.420;7.036;2023-12-07T03:26:15;221.53;;;30.40;;
18623;SDS011;9441;51.420;7.036;2023-12-07T03:27:17;235.07;;;32.07;;
18623;SDS011;9441;51.420;7.036;2023-12-07T03:28:19;231.53;;;31.77;;
18623;SDS011;9441;51.420;7.036;2023-12-07T03:29:22;152.90;;;30.53;;
18623;SDS011;9441;51.420;7.036;2023-12-07T03:30:24;119.73;;;29.00;;
18623;SDS011;9441;51.420;7.036;2023-12-07T03:31:26;109.60;;;30.50;;
18623;SDS011;9441;51.420;7.036;2023-12-07T03:32:28;136.83;;;28.97;;
18623;SDS011;9441;51.420;7.036;2023-12-07T03:33:30;101.13;;;28.93;;
18623;SDS011;9441;51.420;7.036;2023-12-07T03:34:31;138.13;;;29.33;;
18623;SDS011;9441;51.420;7.036;2023-12-07T03:35:33;134.57;;;28.87;;
18623;SDS011;9441;51.420;7.036;2023-12-07T03:36:35;133.83;;;29.37;;
18623;SDS011;9441;51.420;7.036;2023-12-07T03:37:39;122.83;;;29.50;;
18623;SDS011;9441;51.420;7.036;2023-12-07T03:38:40;102.43;;;28.67;;
18623;SDS011;9441;51.420;7.036;2023-12-07T03:39:41;157.67;;;29.27;;
18623;SDS011;9441;51.420;7.036;2023-12-07T03:40:44;113.53;;;29.57;;
18623;SDS011;9441;51.420;7.036;2023-12-07T03:41:48;99.70;;;28.50;;
18623;SDS011;9441;51.420;7.036;2023-12-07T03:42:50;104.17;;;29.93;;
18623;SDS011;9441;51.420;7.036;2023-12-07T03:43:51;125.23;;;28.70;;
18623;SDS011;9441;51.420;7.036;2023-12-07T03:44:54;122.03;;;28.50;;
18623;SDS011;9441;51.420;7.036;2023-12-07T03:45:56;97.50;;;28.30;;
18623;SDS011;9441;51.420;7.036;2023-12-07T03:46:58;111.73;;;28.93;;
18623;SDS011;9441;51.420;7.036;2023-12-07T03:48:01;102.23;;;27.87;;
18623;SDS011;9441;51.420;7.036;2023-12-07T03:49:02;109.73;;;29.37;;
18623;SDS011;9441;51.420;7.036;2023-12-07T03:50:05;108.07;;;28.30;;
18623;SDS011;9441;51.420;7.036;2023-12-07T03:51:06;103.13;;;28.50;;
18623;SDS011;9441;51.420;7.036;2023-12-07T03:52:08;154.17;;;28.97;;
18623;SDS011;9441;51.420;7.036;2023-12-07T03:53:10;111.17;;;29.17;;
18623;SDS011;9441;51.420;7.036;2023-12-07T03:54:12;182.53;;;29.10;;
18623;SDS011;9441;51.420;7.036;2023-12-07T03:55:14;227.90;;;29.63;;
18623;SDS011;9441;51.420;7.036;2023-12-07T03:56:22;107.23;;;26.70;;
18623;SDS011;9441;51.420;7.036;2023-12-07T03:57:23;96.70;;;27.80;;
18623;SDS011;9441;51.420;7.036;2023-12-07T03:58:26;98.83;;;27.53;;
18623;SDS011;9441;51.420;7.036;2023-12-07T03:59:27;108.43;;;28.37;;
18623;SDS011;9441;51.420;7.036;2023-12-07T04:00:31;107.80;;;27.93;;
18623;SDS011;9441;51.420;7.036;2023-12-07T04:01:32;112.27;;;27.87;;
18623;SDS011;9441;51.420;7.036;2023-12-07T04:02:35;124.27;;;28.70;;
18623;SDS011;9441;51.420;7.036;2023-12-07T04:03:37;134.20;;;27.63;;
18623;SDS011;9441;51.420;7.036;2023-12-07T04:04:38;103.73;;;27.27;;
18623;SDS011;9441;51.420;7.036;2023-12-07T04:05:41;106.57;;;28.80;;
18623;SDS011;9441;51.420;7.036;2023-12-07T04:06:43;125.67;;;26.13;;
18623;SDS011;9441;51.420;7.036;2023-12-07T04:07:45;116.77;;;27.60;;
18623;SDS011;9441;51.420;7.036;2023-12-07T04:08:47;93.63;;;27.17;;
18623;SDS011;9441;51.420;7.036;2023-12-07T04:09:49;101.73;;;27.40;;
18623;SDS011;9441;51.420;7.036;2023-12-07T04:10:50;132.37;;;28.63;;
18623;SDS011;9441;51.420;7.036;2023-12-07T04:11:53;121.23;;;26.50;;
18623;SDS011;9441;51.420;7.036;2023-12-07T04:12:54;102.30;;;28.00;;
18623;SDS011;9441;51.420;7.036;2023-12-07T04:13:56;123.13;;;27.23;;
18623;SDS011;9441;51.420;7.036;2023-12-07T04:14:57;97.93;;;26.57;;
18623;SDS011;9441;51.420;7.036;2023-12-07T04:16:00;111.07;;;29.20;;
18623;SDS011;9441;51.420;7.036;2023-12-07T04:17:03;102.80;;;27.63;;
18623;SDS011;9441;51.420;7.036;2023-12-07T04:18:04;101.27;;;26.60;;
18623;SDS011;9441;51.420;7.036;2023-12-07T04:19:07;112.23;;;27.90;;
18623;SDS011;9441;51.420;7.036;2023-12-07T04:20:08;119.90;;;28.47;;
18623;SDS011;9441;51.420;7.036;2023-12-07T04:21:11;119.63;;;28.47;;
18623;SDS011;9441;51.420;7.036;2023-12-07T04:22:12;107.00;;;27.67;;
18623;SDS011;9441;51.420;7.036;2023-12-07T04:23:14;118.83;;;28.70;;
18623;SDS011;9441;51.420;7.036;2023-12-07T04:24:16;114.00;;;28.57;;
18623;SDS011;9441;51.420;7.036;2023-12-07T04:25:17;125.53;;;26.73;;
18623;SDS011;9441;51.420;7.036;2023-12-07T04:26:20;126.43;;;27.27;;
18623;SDS011;9441;51.420;7.036;2023-12-07T04:27:21;112.37;;;28.80;;
18623;SDS011;9441;51.420;7.036;2023-12-07T04:28:23;103.87;;;27.03;;
18623;SDS011;9441;51.420;7.036;2023-12-07T04:29:24;108.03;;;26.90;;
18623;SDS011;9441;51.420;7.036;2023-12-07T04:30:27;105.57;;;28.60;;
18623;SDS011;9441;51.420;7.036;2023-12-07T04:31:29;122.17;;;27.70;;
18623;SDS011;9441;51.420;7.036;2023-12-07T04:32:32;127.00;;;26.97;;
18623;SDS011;9441;51.420;7.036;2023-12-07T04:33:33;109.33;;;28.33;;
18623;SDS011;9441;51.420;7.036;2023-12-07T04:34:36;110.93;;;26.70;;
18623;SDS011;9441;51.420;7.036;2023-12-07T04:35:38;111.60;;;28.20;;
18623;SDS011;9441;51.420;7.036;2023-12-07T04:36:40;108.87;;;26.40;;
18623;SDS011;9441;51.420;7.036;2023-12-07T04:37:42;113.50;;;25.80;;
18623;SDS011;9441;51.420;7.036;2023-12-07T04:38:43;108.67;;;26.83;;
18623;SDS011;9441;51.420;7.036;2023-12-07T04:39:46;109.97;;;26.33;;
18623;SDS011;9441;51.420;7.036;2023-12-07T04:40:47;107.20;;;26.47;;
18623;SDS011;9441;51.420;7.036;2023-12-07T04:41:49;92.20;;;25.87;;
18623;SDS011;9441;51.420;7.036;2023-12-07T04:42:51;97.37;;;26.93;;
18623;SDS011;9441;51.420;7.036;2023-12-07T04:43:53;98.87;;;27.17;;
18623;SDS011;9441;51.420;7.036;2023-12-07T04:44:55;100.13;;;26.23;;
18623;SDS011;9441;51.420;7.036;2023-12-07T04:45:57;102.53;;;25.43;;
18623;SDS011;9441;51.420;7.036;2023-12-07T04:46:59;108.63;;;26.23;;
18623;SDS011;9441;51.420;7.036;2023-12-07T04:48:02;95.43;;;24.90;;
18623;SDS011;9441;51.420;7.036;2023-12-07T04:49:04;99.60;;;26.53;;
18623;SDS011;9441;51.420;7.036;2023-12-07T04:50:06;166.40;;;27.17;;
18623;SDS011;9441;51.420;7.036;2023-12-07T04:51:08;98.33;;;25.00;;
18623;SDS011;9441;51.420;7.036;2023-12-07T04:52:10;123.57;;;26.17;;
18623;SDS011;9441;51.420;7.036;2023-12-07T04:53:11;103.80;;;25.53;;
18623;SDS011;9441;51.420;7.036;2023-12-07T04:54:14;94.23;;;24.53;;
18623;SDS011;9441;51.420;7.036;2023-12-07T04:55:15;105.13;;;25.97;;
18623;SDS011;9441;51.420;7.036;2023-12-07T04:56:17;107.07;;;25.87;;
18623;SDS011;9441;51.420;7.036;2023-12-07T04:57:19;89.53;;;25.60;;
18623;SDS011;9441;51.420;7.036;2023-12-07T04:58:20;107.80;;;25.63;;
18623;SDS011;9441;51.420;7.036;2023-12-07T04:59:22;111.07;;;26.37;;
18623;SDS011;9441;51.420;7.036;2023-12-07T05:00:23;126.10;;;25.83;;
18623;SDS011;9441;51.420;7.036;2023-12-07T05:01:27;87.80;;;23.73;;
18623;SDS011;9441;51.420;7.036;2023-12-07T05:02:30;90.57;;;24.67;;
18623;SDS011;9441;51.420;7.036;2023-12-07T05:03:32;89.87;;;24.67;;
18623;SDS011;9441;51.420;7.036;2023-12-07T05:04:33;102.17;;;23.47;;
18623;SDS011;9441;51.420;7.036;2023-12-07T05:05:36;98.53;;;24.63;;
18623;SDS011;9441;51.420;7.036;2023-12-07T05:06:37;88.60;;;23.83;;
18623;SDS011;9441;51.420;7.036;2023-12-07T05:07:39;84.60;;;23.30;;
18623;SDS011;9441;51.420;7.036;2023-12-07T05:08:40;89.80;;;23.97;;
18623;SDS011;9441;51.420;7.036;2023-12-07T05:09:43;112.30;;;25.63;;
18623;SDS011;9441;51.420;7.036;2023-12-07T05:10:46;98.03;;;24.67;;
18623;SDS011;9441;51.420;7.036;2023-12-07T05:11:47;105.87;;;23.83;;
18623;SDS011;9441;51.420;7.036;2023-12-07T05:12:49;87.33;;;25.07;;
18623;SDS011;9441;51.420;7.036;2023-12-07T05:13:51;94.10;;;24.30;;
18623;SDS011;9441;51.420;7.036;2023-12-07T05:14:53;100.57;;;25.07;;
18623;SDS011;9441;51.420;7.036;2023-12-07T05:15:54;88.40;;;25.17;;
18623;SDS011;9441;51.420;7.036;2023-12-07T05:16:57;83.87;;;23.80;;
18623;SDS011;9441;51.420;7.036;2023-12-07T05:18:00;93.70;;;25.30;;
18623;SDS011;9441;51.420;7.036;2023-12-07T05:19:02;97.67;;;25.07;;
18623;SDS011;9441;51.420;7.036;2023-12-07T05:20:04;88.60;;;26.13;;
18623;SDS011;9441;51.420;7.036;2023-12-07T05:21:07;103.17;;;25.67;;
18623;SDS011;9441;51.420;7.036;2023-12-07T05:22:08;97.00;;;24.53;;
18623;SDS011;9441;51.420;7.036;2023-12-07T05:23:11;81.60;;;24.50;;
18623;SDS011;9441;51.420;7.036;2023-12-07T05:24:12;82.13;;;24.57;;
18623;SDS011;9441;51.420;7.036;2023-12-07T05:25:15;80.90;;;23.30;;
18623;SDS011;9441;51.420;7.036;2023-12-07T05:26:16;84.73;;;23.00;;
18623;SDS011;9441;51.420;7.036;2023-12-07T05:27:19;92.00;;;23.03;;
18623;SDS011;9441;51.420;7.036;2023-12-07T05:28:20;79.17;;;23.40;;
18623;SDS011;9441;51.420;7.036;2023-12-07T05:29:23;81.47;;;23.23;;
18623;SDS011;9441;51.420;7.036;2023-12-07T05:30:24;85.43;;;23.53;;
18623;SDS011;9441;51.420;7.036;2023-12-07T05:31:28;93.20;;;25.73;;
18623;SDS011;9441;51.420;7.036;2023-12-07T05:32:29;88.97;;;25.60;;
18623;SDS011;9441;51.420;7.036;2023-12-07T05:33:33;77.93;;;23.00;;
18623;SDS011;9441;51.420;7.036;2023-12-07T05:34:34;80.67;;;22.57;;
18623;SDS011;9441;51.420;7.036;2023-12-07T05:35:36;94.13;;;23.00;;
18623;SDS011;9441;51.420;7.036;2023-12-07T05:36:38;100.47;;;26.13;;
18623;SDS011;9441;51.420;7.036;2023-12-07T05:37:40;112.87;;;24.80;;
18623;SDS011;9441;51.420;7.036;2023-12-07T05:38:42;105.83;;;24.90;;
18623;SDS011;9441;51.420;7.036;2023-12-07T05:39:44;93.50;;;26.53;;
18623;SDS011;9441;51.420;7.036;2023-12-07T05:40:45;89.77;;;26.10;;
18623;SDS011;9441;51.420;7.036;2023-12-07T05:41:48;97.00;;;26.87;;
18623;SDS011;9441;51.420;7.036;2023-12-07T05:42:49;75.67;;;24.27;;
18623;SDS011;9441;51.420;7.036;2023-12-07T05:43:52;100.17;;;25.90;;
18623;SDS011;9441;51.420;7.036;2023-12-07T05:44:53;98.17;;;26.90;;
18623;SDS011;9441;51.420;7.036;2023-12-07T05:45:54;80.80;;;25.87;;
18623;SDS011;9441;51.420;7.036;2023-12-07T05:46:57;88.17;;;26.30;;
18623;SDS011;9441;51.420;7.036;2023-12-07T05:47:58;108.10;;;27.03;;
18623;SDS011;9441;51.420;7.036;2023-12-07T05:49:02;93.73;;;26.10;;
18623;SDS011;9441;51.420;7.036;2023-12-07T05:50:04;108.50;;;28.23;;
18623;SDS011;9441;51.420;7.036;2023-12-07T05:51:11;88.97;;;25.30;;
18623;SDS011;9441;51.420;7.036;2023-12-07T05:52:12;91.70;;;27.27;;
18623;SDS011;9441;51.420;7.036;2023-12-07T05:53:14;85.20;;;24.57;;
18623;SDS011;9441;51.420;7.036;2023-12-07T05:54:16;110.70;;;26.77;;
18623;SDS011;9441;51.420;7.036;2023-12-07T05:55:17;101.40;;;26.17;;
18623;SDS011;9441;51.420;7.036;2023-12-07T05:56:19;97.53;;;25.03;;
18623;SDS011;9441;51.420;7.036;2023-12-07T05:57:21;96.50;;;26.90;;
18623;SDS011;9441;51.420;7.036;2023-12-07T05:58:23;96.60;;;27.20;;
18623;SDS011;9441;51.420;7.036;2023-12-07T05:59:25;92.47;;;26.93;;
18623;SDS011;9441;51.420;7.036;2023-12-07T06:00:27;94.33;;;26.83;;
18623;SDS011;9441;51.420;7.036;2023-12-07T06:01:28;94.17;;;27.77;;
18623;SDS011;9441;51.420;7.036;2023-12-07T06:02:31;85.90;;;27.77;;
18623;SDS011;9441;51.420;7.036;2023-12-07T06:03:33;91.13;;;28.07;;
18623;SDS011;9441;51.420;7.036;2023-12-07T06:04:36;85.70;;;26.20;;